createdAt,value
2022-10-29T00:00:51.227Z,17.97
2022-10-29T00:03:18.311Z,34.83
2022-10-29T00:05:54.885Z,38.03
2022-10-29T00:08:21.466Z,20.13
2022-10-29T00:10:48.074Z,22.40
2022-10-29T00:13:14.956Z,21.27
2022-10-29T00:15:41.596Z,15.63
2022-10-29T00:18:08.261Z,18.97
2022-10-29T00:20:34.929Z,15.50
2022-10-29T00:23:01.578Z,20.00
2022-10-29T00:25:28.282Z,15.33
2022-10-29T00:27:56.554Z,16.07
2022-10-29T00:30:23.169Z,16.40
2022-10-29T00:32:49.837Z,17.47
2022-10-29T00:35:16.474Z,10.03
2022-10-29T00:37:43.199Z,10.57
2022-10-29T00:40:10.664Z,13.17
2022-10-29T00:42:38.671Z,9.63
2022-10-29T00:45:06.081Z,12.60
2022-10-29T00:47:37.481Z,12.30
2022-10-29T00:50:08.861Z,15.37
2022-10-29T00:52:40.513Z,17.93
2022-10-29T00:55:09.771Z,9.17
2022-10-29T00:57:40.197Z,10.67
2022-10-29T01:00:07.622Z,14.00
2022-10-29T01:02:36.327Z,16.10
2022-10-29T01:05:05.254Z,16.93
2022-10-29T01:07:32.226Z,15.40
2022-10-29T01:09:59.123Z,9.53
2022-10-29T01:13:02.927Z,11.87
2022-10-29T01:15:42.659Z,11.87
2022-10-29T01:18:37.782Z,12.33
2022-10-29T01:21:24.074Z,12.73
2022-10-29T01:24:25.189Z,12.00
2022-10-29T01:27:26.308Z,10.13
2022-10-29T01:30:47.340Z,14.70
2022-10-29T01:33:29.478Z,10.13
2022-10-29T01:36:07.641Z,17.00
2022-10-29T01:38:51.481Z,15.73
2022-10-29T01:41:23.623Z,14.10
2022-10-29T01:44:03.909Z,13.90
2022-10-29T01:46:46.450Z,15.63
2022-10-29T01:49:18.709Z,19.03
2022-10-29T01:51:46.385Z,12.67
2022-10-29T01:54:13.281Z,12.57
2022-10-29T01:56:39.939Z,9.40
2022-10-29T01:59:18.123Z,15.00
2022-10-29T02:02:37.171Z,12.17
2022-10-29T02:05:30.989Z,9.63
2022-10-29T02:08:03.443Z,10.97
2022-10-29T02:10:40.687Z,13.37
2022-10-29T02:13:12.474Z,14.57
2022-10-29T02:15:43.695Z,11.60
2022-10-29T02:18:10.551Z,11.27
2022-10-29T02:20:42.145Z,14.67
2022-10-29T02:23:09.335Z,9.20
2022-10-29T02:25:36.146Z,15.77
2022-10-29T02:28:02.968Z,8.67
2022-10-29T02:30:29.624Z,13.73
2022-10-29T02:32:56.588Z,9.13
2022-10-29T02:35:23.721Z,12.73
2022-10-29T02:37:50.390Z,10.30
2022-10-29T02:40:17.178Z,13.07
2022-10-29T02:42:43.878Z,14.67
2022-10-29T02:45:10.763Z,10.97
2022-10-29T02:47:37.500Z,10.57
2022-10-29T02:50:10.027Z,8.53
2022-10-29T02:52:40.509Z,15.77
2022-10-29T02:55:09.330Z,11.47
2022-10-29T02:57:37.058Z,14.00
2022-10-29T03:00:06.597Z,12.47
2022-10-29T03:02:33.371Z,11.13
2022-10-29T03:05:00.022Z,10.33
2022-10-29T03:07:26.617Z,11.80
2022-10-29T03:09:53.225Z,12.83
2022-10-29T03:12:19.935Z,9.07
2022-10-29T03:14:46.721Z,14.53
2022-10-29T03:17:13.288Z,14.10
2022-10-29T03:19:40.053Z,11.97
2022-10-29T03:22:06.748Z,9.97
2022-10-29T03:24:33.402Z,14.73
2022-10-29T03:27:00.134Z,12.60
2022-10-29T03:29:26.729Z,12.83
2022-10-29T03:31:53.457Z,12.17
2022-10-29T03:34:20.157Z,9.90
2022-10-29T03:36:46.926Z,14.40
2022-10-29T03:39:13.559Z,12.53
2022-10-29T03:41:40.301Z,14.27
2022-10-29T03:44:06.991Z,10.83
2022-10-29T03:46:34.238Z,8.67
2022-10-29T03:49:00.984Z,13.87
2022-10-29T03:51:27.699Z,10.47
2022-10-29T03:53:54.357Z,12.27
2022-10-29T03:56:20.988Z,13.80
2022-10-29T03:58:47.688Z,10.50
2022-10-29T04:01:14.493Z,19.23
2022-10-29T04:03:42.279Z,15.27
2022-10-29T04:06:12.023Z,10.70
2022-10-29T04:08:38.947Z,8.60
2022-10-29T04:11:05.860Z,15.23
2022-10-29T04:13:32.632Z,12.07
2022-10-29T04:15:59.326Z,12.43
2022-10-29T04:18:26.101Z,12.43
2022-10-29T04:28:36.872Z,11.40
2022-10-29T04:29:14.051Z,13.37
2022-10-29T04:31:40.740Z,12.73
2022-10-29T04:34:07.415Z,13.20
2022-10-29T04:36:34.029Z,12.43
2022-10-29T04:39:00.752Z,12.43
2022-10-29T04:41:27.317Z,12.43
2022-10-29T04:43:54.047Z,14.47
2022-10-29T04:46:20.657Z,11.70
2022-10-29T04:48:47.362Z,11.03
2022-10-29T04:51:25.656Z,12.63
2022-10-29T04:53:52.397Z,13.47
2022-10-29T04:56:19.152Z,12.33
2022-10-29T04:58:45.775Z,14.97
2022-10-29T05:01:12.530Z,17.30
2022-10-29T05:03:39.403Z,9.93
2022-10-29T05:06:06.845Z,21.33
2022-10-29T05:08:34.250Z,13.13
2022-10-29T05:11:07.312Z,15.57
2022-10-29T05:13:34.523Z,12.27
2022-10-29T05:16:01.685Z,13.23
2022-10-29T05:18:28.353Z,12.67
2022-10-29T05:20:55.922Z,14.67
2022-10-29T05:23:23.438Z,13.83
2022-10-29T05:25:51.993Z,14.43
2022-10-29T05:28:21.041Z,14.53
2022-10-29T05:30:49.907Z,12.50
2022-10-29T05:33:24.477Z,13.30
2022-10-29T05:35:51.711Z,14.20
2022-10-29T05:38:19.337Z,12.90
2022-10-29T05:40:46.223Z,16.33
2022-10-29T05:43:14.768Z,13.33
2022-10-29T05:45:42.324Z,10.57
2022-10-29T05:50:42.941Z,10.47
2022-10-29T05:53:12.166Z,14.07
2022-10-29T05:55:39.825Z,12.47
2022-10-29T05:58:10.292Z,11.37
2022-10-29T06:00:38.885Z,12.47
2022-10-29T06:03:17.186Z,14.47
2022-10-29T06:05:45.869Z,14.30
2022-10-29T06:08:12.605Z,11.00
2022-10-29T06:10:39.357Z,9.57
2022-10-29T06:13:11.044Z,10.43
2022-10-29T06:15:37.651Z,11.80
2022-10-29T06:18:04.393Z,10.37
2022-10-29T06:20:31.043Z,10.83
2022-10-29T06:22:59.003Z,13.13
2022-10-29T06:25:27.314Z,13.10
2022-10-29T06:28:08.871Z,14.17
2022-10-29T06:30:36.469Z,12.77
2022-10-29T06:33:04.924Z,13.23
2022-10-29T06:35:32.038Z,12.47
2022-10-29T06:37:59.227Z,8.83
2022-10-29T06:40:26.395Z,12.83
2022-10-29T06:43:04.781Z,9.70
2022-10-29T06:45:33.281Z,10.60
2022-10-29T06:48:00.452Z,11.63
2022-10-29T06:50:33.679Z,7.23
2022-10-29T06:53:03.559Z,11.40
2022-10-29T06:55:33.469Z,7.97
2022-10-29T06:58:09.946Z,8.30
2022-10-29T07:00:40.169Z,7.60
2022-10-29T07:03:13.299Z,9.97
2022-10-29T07:05:40.429Z,10.57
2022-10-29T07:08:08.531Z,12.37
2022-10-29T07:10:35.993Z,15.07
2022-10-29T07:13:03.282Z,16.70
2022-10-29T07:15:31.117Z,16.70
2022-10-29T07:18:03.670Z,15.90
2022-10-29T07:20:33.950Z,14.27
2022-10-29T07:23:01.493Z,12.60
2022-10-29T07:25:29.701Z,15.83
2022-10-29T07:28:04.122Z,10.43
2022-10-29T07:30:31.185Z,12.30
2022-10-29T07:32:57.792Z,16.20
2022-10-29T07:35:24.413Z,12.90
2022-10-29T07:37:51.050Z,7.57
2022-10-29T07:40:17.728Z,12.23
2022-10-29T07:42:44.359Z,8.97
2022-10-29T07:45:11.190Z,11.33
2022-10-29T07:47:38.071Z,15.40
2022-10-29T07:50:05.021Z,13.90
2022-10-29T07:52:31.707Z,9.53
2022-10-29T07:55:00.453Z,12.47
2022-10-29T07:57:27.091Z,10.97
2022-10-29T07:59:53.769Z,9.37
2022-10-29T08:02:20.495Z,11.67
2022-10-29T08:04:47.169Z,10.23
2022-10-29T08:07:13.809Z,10.00
2022-10-29T08:09:40.772Z,8.47
2022-10-29T08:12:11.432Z,7.67
2022-10-29T08:14:38.097Z,14.80
2022-10-29T08:17:04.732Z,13.47
2022-10-29T08:19:31.433Z,10.73
2022-10-29T08:21:58.024Z,9.27
2022-10-29T08:24:24.702Z,11.67
2022-10-29T08:26:51.476Z,8.97
2022-10-29T08:29:18.261Z,11.93
2022-10-29T08:31:45.020Z,11.10
2022-10-29T08:34:11.685Z,11.63
2022-10-29T08:36:38.728Z,8.27
2022-10-29T08:39:05.334Z,8.37
2022-10-29T08:41:45.798Z,8.47
2022-10-29T08:44:33.488Z,9.63
2022-10-29T08:47:14.912Z,11.57
2022-10-29T08:50:17.980Z,10.17
2022-10-29T08:52:53.076Z,19.93
2022-10-29T08:55:33.710Z,11.10
2022-10-29T08:58:17.433Z,7.47
2022-10-29T09:00:44.440Z,19.47
2022-10-29T09:03:12.719Z,8.27
2022-10-29T09:06:04.766Z,11.47
2022-10-29T09:08:38.196Z,15.23
2022-10-29T09:11:26.219Z,9.70
2022-10-29T09:14:11.170Z,10.60
2022-10-29T09:17:19.891Z,13.27
2022-10-29T09:19:58.507Z,51.40
2022-10-29T09:23:19.132Z,51.80
2022-10-29T09:26:17.529Z,60.17
2022-10-29T09:29:17.528Z,36.53
2022-10-29T09:31:49.081Z,34.13
2022-10-29T09:34:29.258Z,14.93
2022-10-29T09:36:56.904Z,34.67
2022-10-29T09:39:34.323Z,14.43
2022-10-29T09:42:03.104Z,20.67
2022-10-29T09:44:39.679Z,9.43
2022-10-29T09:47:36.149Z,14.13
2022-10-29T09:50:19.447Z,12.07
2022-10-29T09:52:48.602Z,11.67
2022-10-29T09:55:28.247Z,11.60
2022-10-29T09:57:58.778Z,10.97
2022-10-29T10:00:30.685Z,10.17
2022-10-29T10:03:18.369Z,10.33
2022-10-29T10:06:01.793Z,10.63
2022-10-29T10:08:29.773Z,10.50
2022-10-29T10:11:03.116Z,11.03
2022-10-29T10:13:32.374Z,10.70
2022-10-29T10:16:01.236Z,8.03
2022-10-29T10:18:48.083Z,9.40
2022-10-29T10:21:26.317Z,11.90
2022-10-29T10:23:54.691Z,7.53
2022-10-29T10:26:43.419Z,13.30
2022-10-29T10:29:18.616Z,12.60
2022-10-29T10:31:50.028Z,11.17
2022-10-29T10:34:22.552Z,16.53
2022-10-29T10:36:55.614Z,10.57
2022-10-29T10:39:27.630Z,13.20
2022-10-29T10:41:56.418Z,16.13
2022-10-29T10:44:23.958Z,17.30
2022-10-29T10:46:54.459Z,11.40
2022-10-29T10:49:36.887Z,8.93
2022-10-29T10:52:18.225Z,8.80
2022-10-29T10:55:01.077Z,6.83
2022-10-29T10:57:39.142Z,7.90
2022-10-29T11:00:19.634Z,9.10
2022-10-29T11:02:54.063Z,10.47
2022-10-29T11:06:01.796Z,8.73
2022-10-29T11:09:07.285Z,9.10
2022-10-29T11:11:44.158Z,8.20
2022-10-29T11:14:17.852Z,11.40
2022-10-29T11:16:52.271Z,14.07
2022-10-29T11:19:44.810Z,8.20
2022-10-29T11:22:22.304Z,13.73
2022-10-29T11:25:31.804Z,24.43
2022-10-29T11:28:14.806Z,24.70
2022-10-29T11:30:49.653Z,11.57
2022-10-29T11:33:41.924Z,16.37
2022-10-29T11:36:27.212Z,13.90
2022-10-29T11:38:59.784Z,8.80
2022-10-29T11:41:33.708Z,9.07
2022-10-29T11:44:01.126Z,25.73
2022-10-29T11:47:01.538Z,17.73
2022-10-29T11:49:44.693Z,24.43
2022-10-29T11:52:15.484Z,16.83
2022-10-29T11:55:02.298Z,13.77
2022-10-29T11:57:48.564Z,14.43
2022-10-29T12:00:20.005Z,10.40
2022-10-29T12:03:19.059Z,7.73
2022-10-29T12:06:10.339Z,15.37
2022-10-29T12:09:01.209Z,8.80
2022-10-29T12:12:03.852Z,15.47
2022-10-29T12:15:00.433Z,16.00
2022-10-29T12:18:12.699Z,19.83
2022-10-29T12:21:09.553Z,8.57
2022-10-29T12:23:55.189Z,12.03
2022-10-29T12:26:53.428Z,12.80
2022-10-29T12:29:34.672Z,6.80
2022-10-29T12:32:23.564Z,9.63
2022-10-29T12:35:00.115Z,10.80
2022-10-29T12:37:49.385Z,13.67
2022-10-29T12:43:11.808Z,11.03
2022-10-29T12:46:18.436Z,33.63
2022-10-29T12:49:00.631Z,41.93
2022-10-29T12:51:49.974Z,20.33
2022-10-29T12:54:29.074Z,15.97
2022-10-29T12:57:04.344Z,31.13
2022-10-29T12:59:34.488Z,13.05
2022-10-29T13:02:27.448Z,29.33
2022-10-29T13:05:18.383Z,15.07
2022-10-29T13:07:45.442Z,30.60
2022-10-29T13:10:29.687Z,22.73
2022-10-29T13:13:16.317Z,15.30
2022-10-29T13:15:49.293Z,18.20
2022-10-29T13:18:42.145Z,13.67
2022-10-29T13:21:11.947Z,14.43
2022-10-29T13:23:42.403Z,11.20
2022-10-29T13:26:12.999Z,15.47
2022-10-29T13:28:39.888Z,15.05
2022-10-29T13:31:33.534Z,16.87
2022-10-29T13:34:00.988Z,12.20
2022-10-29T13:36:38.581Z,13.82
2022-10-29T13:39:19.229Z,15.50
2022-10-29T13:41:54.390Z,10.57
2022-10-29T13:44:29.108Z,16.38
2022-10-29T13:47:04.309Z,11.93
2022-10-29T13:49:48.163Z,10.77
2022-10-29T13:52:24.899Z,9.93
2022-10-29T13:54:59.397Z,10.10
2022-10-29T13:58:02.879Z,10.23
2022-10-29T14:00:38.295Z,8.63
2022-10-29T14:03:16.139Z,9.35
2022-10-29T14:05:52.509Z,10.57
2022-10-29T14:08:46.094Z,11.45
2022-10-29T14:11:29.886Z,17.65
2022-10-29T14:14:03.230Z,19.50
2022-10-29T14:16:34.539Z,17.27
2022-10-29T14:19:19.607Z,18.38
2022-10-29T14:21:46.596Z,14.82
2022-10-29T14:24:16.289Z,20.43
2022-10-29T14:26:45.000Z,29.63
2022-10-29T14:29:25.686Z,20.38
2022-10-29T14:32:12.442Z,22.57
2022-10-29T14:34:40.685Z,18.45
2022-10-29T14:37:30.815Z,13.60
2022-10-29T14:40:06.464Z,32.25
2022-10-29T14:42:43.000Z,35.97
2022-10-29T14:45:39.001Z,23.00
2022-10-29T14:48:15.349Z,30.33
2022-10-29T14:50:47.952Z,12.63
2022-10-29T14:53:30.516Z,14.27
2022-10-29T14:55:59.604Z,11.60
2022-10-29T14:58:33.538Z,17.10
2022-10-29T15:01:05.219Z,9.75
2022-10-29T15:03:53.281Z,12.55
2022-10-29T15:06:28.157Z,11.88
2022-10-29T15:09:05.697Z,15.07
2022-10-29T15:11:42.505Z,15.60
2022-10-29T15:14:39.997Z,12.87
2022-10-29T15:17:17.710Z,9.15
2022-10-29T15:19:46.192Z,16.98
2022-10-29T15:22:21.946Z,17.67
2022-10-29T15:24:52.039Z,15.93
2022-10-29T15:27:18.933Z,17.20
2022-10-29T15:29:48.129Z,11.13
2022-10-29T15:32:17.059Z,12.37
2022-10-29T15:34:49.475Z,10.98
2022-10-29T15:37:19.077Z,10.73
2022-10-29T15:40:21.738Z,8.37
2022-10-29T15:42:48.876Z,10.63
2022-10-29T15:45:31.265Z,13.57
2022-10-29T15:48:38.482Z,17.77
2022-10-29T15:51:09.202Z,11.27
2022-10-29T15:53:44.518Z,14.70
2022-10-29T15:56:14.646Z,10.75
2022-10-29T15:58:45.966Z,14.75
2022-10-29T16:01:18.330Z,18.90
2022-10-29T16:03:48.775Z,8.90
2022-10-29T16:06:16.505Z,12.38
2022-10-29T16:08:55.586Z,14.90
2022-10-29T16:11:23.083Z,14.13
2022-10-29T16:13:54.796Z,13.73
2022-10-29T16:16:24.177Z,25.47
2022-10-29T16:18:52.719Z,21.67
2022-10-29T16:21:23.123Z,21.60
2022-10-29T16:23:55.528Z,22.75
2022-10-29T16:26:24.849Z,22.83
2022-10-29T16:28:55.559Z,22.67
2022-10-29T16:31:26.137Z,11.90
2022-10-29T16:34:01.708Z,19.92
2022-10-29T16:36:30.079Z,18.73
2022-10-29T16:39:04.598Z,17.65
2022-10-29T16:41:35.737Z,18.00
2022-10-29T16:44:04.458Z,14.57
2022-10-29T16:46:34.455Z,16.27
2022-10-29T16:49:05.540Z,16.77
2022-10-29T16:51:32.634Z,14.90
2022-10-29T16:54:01.122Z,16.75
2022-10-29T16:56:31.961Z,18.38
2022-10-29T16:59:02.075Z,16.48
2022-10-29T17:01:29.880Z,21.60
2022-10-29T17:04:00.455Z,16.67
2022-10-29T17:06:31.827Z,16.50
2022-10-29T17:09:01.326Z,15.93
2022-10-29T17:11:30.572Z,15.60
2022-10-29T17:13:58.322Z,12.20
2022-10-29T17:16:25.582Z,14.73
2022-10-29T17:18:54.198Z,13.50
2022-10-29T17:21:21.046Z,12.85
2022-10-29T17:23:50.043Z,17.43
2022-10-29T17:26:20.868Z,17.13
2022-10-29T17:28:55.459Z,20.00
2022-10-29T17:31:22.452Z,31.20
2022-10-29T17:33:52.477Z,41.28
2022-10-29T17:36:19.968Z,28.40
2022-10-29T17:38:47.319Z,29.10
2022-10-29T17:41:14.516Z,15.00
2022-10-29T17:43:42.266Z,21.93
2022-10-29T17:46:12.482Z,18.93
2022-10-29T17:48:44.609Z,14.03
2022-10-29T17:51:11.937Z,16.60
2022-10-29T17:53:41.580Z,15.15
2022-10-29T17:56:08.594Z,16.23
2022-10-29T17:58:39.512Z,13.45
2022-10-29T18:01:12.059Z,16.83
2022-10-29T18:03:39.207Z,18.90
2022-10-29T18:06:16.157Z,15.23
2022-10-29T18:08:43.112Z,14.75
2022-10-29T18:11:15.226Z,18.03
2022-10-29T18:13:42.926Z,16.93
2022-10-29T18:16:23.240Z,15.18
2022-10-29T18:19:02.192Z,21.63
2022-10-29T18:21:32.323Z,26.38
2022-10-29T18:23:59.404Z,17.30
2022-10-29T18:26:34.676Z,15.67
2022-10-29T18:29:06.605Z,19.75
2022-10-29T18:31:37.928Z,14.50
2022-10-29T18:34:07.647Z,16.67
2022-10-29T18:36:42.057Z,23.93
2022-10-29T18:39:10.010Z,20.60
2022-10-29T18:41:40.817Z,21.93
2022-10-29T18:44:10.699Z,19.50
2022-10-29T18:46:37.682Z,22.47
2022-10-29T18:49:06.576Z,19.70
2022-10-29T18:51:34.277Z,22.87
2022-10-29T18:54:04.327Z,18.23
2022-10-29T18:56:31.832Z,20.93
2022-10-29T18:59:00.396Z,18.03
2022-10-29T19:01:32.006Z,25.70
2022-10-29T19:04:06.246Z,17.13
2022-10-29T19:06:39.305Z,13.87
2022-10-29T19:09:10.154Z,17.53
2022-10-29T19:11:37.291Z,24.23
2022-10-29T19:14:06.890Z,17.40
2022-10-29T19:16:35.428Z,22.15
2022-10-29T19:19:07.449Z,18.20
2022-10-29T19:21:36.050Z,17.73
2022-10-29T19:24:03.742Z,15.00
2022-10-29T19:26:38.075Z,18.47
2022-10-29T19:29:06.662Z,19.33
2022-10-29T19:31:35.855Z,22.37
2022-10-29T19:34:11.712Z,19.03
2022-10-29T19:36:43.283Z,17.70
2022-10-29T19:39:14.294Z,20.63
2022-10-29T19:41:46.450Z,19.90
2022-10-29T19:44:17.505Z,16.60
2022-10-29T19:46:44.493Z,19.13
2022-10-29T19:49:12.290Z,20.23
2022-10-29T19:51:40.636Z,22.50
2022-10-29T19:54:08.298Z,18.83
2022-10-29T19:56:35.814Z,17.87
2022-10-29T19:59:05.066Z,23.53
2022-10-29T20:01:32.521Z,19.17
2022-10-29T20:03:59.682Z,21.10
2022-10-29T20:06:26.623Z,19.90
2022-10-29T20:08:53.814Z,16.30
2022-10-29T20:11:20.767Z,18.80
2022-10-29T20:13:52.695Z,21.33
2022-10-29T20:16:21.291Z,18.20
2022-10-29T20:18:49.115Z,17.93
2022-10-29T20:21:16.831Z,27.30
2022-10-29T20:23:45.817Z,14.30
2022-10-29T20:26:13.140Z,22.73
2022-10-29T20:28:41.526Z,14.17
2022-10-29T20:31:26.120Z,18.17
2022-10-29T20:33:58.443Z,22.47
2022-10-29T20:36:27.582Z,17.67
2022-10-29T20:38:57.103Z,20.87
2022-10-29T20:41:26.433Z,19.77
2022-10-29T20:44:03.304Z,20.47
2022-10-29T20:46:30.327Z,17.30
2022-10-29T20:48:57.771Z,20.07
2022-10-29T20:51:25.064Z,24.50
2022-10-29T20:53:54.397Z,21.80
2022-10-29T20:56:24.420Z,31.20
2022-10-29T20:58:55.252Z,19.87
2022-10-29T21:01:24.755Z,17.57
2022-10-29T21:03:51.981Z,21.63
2022-10-29T21:06:20.975Z,25.93
2022-10-29T21:08:51.448Z,18.27
2022-10-29T21:11:20.133Z,16.93
2022-10-29T21:13:47.513Z,14.50
2022-10-29T21:16:29.241Z,17.27
2022-10-29T21:19:00.397Z,18.20
2022-10-29T21:21:32.987Z,32.27
2022-10-29T21:24:01.055Z,29.07
2022-10-29T21:26:31.909Z,23.23
2022-10-29T21:28:59.453Z,17.07
2022-10-29T21:31:27.499Z,22.37
2022-10-29T21:33:55.963Z,14.67
2022-10-29T21:36:25.040Z,12.00
2022-10-29T21:38:56.903Z,16.97
2022-10-29T21:41:24.115Z,10.43
2022-10-29T21:43:51.019Z,17.77
2022-10-29T21:46:20.662Z,18.67
2022-10-29T21:48:48.723Z,12.97
2022-10-29T21:51:17.061Z,16.30
2022-10-29T21:53:46.791Z,18.57
2022-10-29T21:56:15.352Z,14.87
2022-10-29T21:58:42.933Z,16.70
2022-10-29T22:01:16.875Z,16.03
2022-10-29T22:03:48.660Z,17.60
2022-10-29T22:06:21.006Z,20.30
2022-10-29T22:08:54.915Z,17.07
2022-10-29T22:11:24.021Z,17.30
2022-10-29T22:13:52.385Z,18.33
2022-10-29T22:16:28.045Z,13.77
2022-10-29T22:18:55.927Z,16.97
2022-10-29T22:21:26.681Z,11.03
2022-10-29T22:23:56.154Z,19.80
2022-10-29T22:26:29.227Z,18.10
2022-10-29T22:28:57.718Z,13.73
2022-10-29T22:31:25.763Z,13.73
2022-10-29T22:33:53.088Z,15.17
2022-10-29T22:36:22.563Z,15.03
2022-10-29T22:39:01.288Z,17.03
2022-10-29T22:41:29.597Z,18.40
2022-10-29T22:43:59.295Z,27.83
2022-10-29T22:46:29.080Z,24.27
2022-10-29T22:48:56.766Z,20.53
2022-10-29T22:51:30.660Z,19.90
2022-10-29T22:53:58.746Z,19.03
2022-10-29T22:56:31.366Z,14.00
2022-10-29T22:59:00.718Z,24.10
2022-10-29T23:01:31.853Z,20.93
2022-10-29T23:03:59.710Z,12.10
2022-10-29T23:06:27.966Z,15.23
2022-10-29T23:09:02.673Z,16.77
2022-10-29T23:11:32.075Z,12.93
2022-10-29T23:14:00.491Z,17.13
2022-10-29T23:16:29.848Z,14.67
2022-10-29T23:18:59.513Z,18.00
2022-10-29T23:21:26.740Z,14.37
2022-10-29T23:23:54.317Z,11.37
2022-10-29T23:26:22.776Z,14.10
2022-10-29T23:28:49.641Z,10.17
2022-10-29T23:31:22.117Z,11.43
2022-10-29T23:33:51.919Z,14.23
2022-10-29T23:36:22.102Z,14.87
2022-10-29T23:38:57.887Z,11.63
2022-10-29T23:41:28.863Z,10.73
2022-10-29T23:44:02.100Z,11.23
2022-10-29T23:46:30.964Z,15.40
2022-10-29T23:48:59.075Z,16.67
2022-10-29T23:51:25.857Z,16.57
2022-10-29T23:53:56.465Z,13.53
2022-10-29T23:56:24.841Z,11.73
2022-10-29T23:58:51.469Z,10.80
